createdAt,value
2018-07-30T00:01:35.009Z,6.63
2018-07-30T00:04:02.009Z,5.50
2018-07-30T00:06:32.296Z,5.60
2018-07-30T00:09:02.352Z,5.97
2018-07-30T00:11:31.991Z,5.20
2018-07-30T00:14:03.156Z,6.13
2018-07-30T00:16:30.211Z,5.80
2018-07-30T00:19:03.647Z,6.10
2018-07-30T00:21:36.748Z,5.10
2018-07-30T00:24:06.870Z,6.33
2018-07-30T00:26:37.002Z,5.73
2018-07-30T00:29:04.038Z,5.70
2018-07-30T00:31:32.387Z,5.07
2018-07-30T00:33:59.421Z,6.30
2018-07-30T00:36:27.507Z,5.10
2018-07-30T00:38:56.496Z,5.13
2018-07-30T00:41:26.810Z,5.90
2018-07-30T00:43:55.558Z,5.77
2018-07-30T00:46:24.585Z,6.77
2018-07-30T00:48:58.986Z,5.60
2018-07-30T00:51:27.055Z,6.33
2018-07-30T00:53:55.143Z,5.43
2018-07-30T00:56:23.242Z,6.00
2018-07-30T00:58:54.125Z,5.77
2018-07-30T01:01:21.176Z,6.10
2018-07-30T01:03:48.384Z,5.87
2018-07-30T01:06:16.133Z,5.70
2018-07-30T01:08:43.266Z,5.63
2018-07-30T01:11:13.280Z,5.47
2018-07-30T01:13:46.495Z,5.47
2018-07-30T01:16:14.551Z,5.20
2018-07-30T01:18:42.539Z,5.10
2018-07-30T01:21:09.604Z,5.97
2018-07-30T01:23:38.602Z,5.40
2018-07-30T01:26:13.239Z,5.77
2018-07-30T01:28:41.084Z,6.53
2018-07-30T01:31:08.166Z,6.37
2018-07-30T01:33:38.363Z,6.13
2018-07-30T01:36:08.547Z,6.07
2018-07-30T01:38:36.528Z,6.53
2018-07-30T01:41:03.643Z,5.90
2018-07-30T01:43:32.051Z,6.10
2018-07-30T01:45:59.084Z,6.43
2018-07-30T01:48:26.220Z,5.63
2018-07-30T01:50:56.376Z,5.70
2018-07-30T01:53:24.114Z,5.63
2018-07-30T01:55:51.159Z,6.50
2018-07-30T01:58:21.175Z,5.90
2018-07-30T02:00:51.411Z,5.70
2018-07-30T02:03:19.108Z,4.90
2018-07-30T02:05:53.347Z,5.20
2018-07-30T02:08:20.515Z,5.93
2018-07-30T02:10:58.607Z,5.80
2018-07-30T02:13:26.627Z,5.30
2018-07-30T02:15:54.599Z,5.83
2018-07-30T02:18:22.474Z,5.53
2018-07-30T02:20:52.616Z,5.53
2018-07-30T02:23:24.265Z,5.93
2018-07-30T02:25:53.075Z,5.90
2018-07-30T02:28:23.091Z,6.50
2018-07-30T02:30:54.160Z,6.37
2018-07-30T02:33:27.469Z,6.40
2018-07-30T02:35:54.656Z,5.97
2018-07-30T02:38:23.623Z,6.23
2018-07-30T02:40:50.700Z,5.50
2018-07-30T02:43:17.868Z,5.60
2018-07-30T02:45:55.273Z,5.50
2018-07-30T02:48:25.515Z,6.80
2018-07-30T02:50:57.871Z,6.00
2018-07-30T02:53:29.355Z,5.70
2018-07-30T02:55:58.140Z,6.60
2018-07-30T02:58:31.361Z,5.50
2018-07-30T03:00:59.409Z,6.80
2018-07-30T03:03:30.473Z,6.20
2018-07-30T03:05:58.152Z,6.13
2018-07-30T03:08:30.479Z,5.47
2018-07-30T03:11:00.547Z,6.60
2018-07-30T03:13:28.656Z,6.40
2018-07-30T03:15:55.810Z,5.60
2018-07-30T03:18:22.967Z,5.57
2018-07-30T03:20:53.455Z,5.77
2018-07-30T03:23:23.647Z,6.20
2018-07-30T03:25:51.515Z,6.80
2018-07-30T03:28:20.586Z,5.93
2018-07-30T03:30:53.633Z,6.47
2018-07-30T03:33:20.667Z,5.93
2018-07-30T03:35:47.899Z,6.20
2018-07-30T03:38:15.021Z,6.47
2018-07-30T03:40:42.203Z,5.83
2018-07-30T03:43:09.339Z,6.43
2018-07-30T03:45:36.416Z,6.40
2018-07-30T03:48:09.530Z,6.30
2018-07-30T03:50:36.689Z,6.80
2018-07-30T03:53:03.859Z,6.17
2018-07-30T03:55:32.926Z,7.20
2018-07-30T03:58:00.538Z,5.80
2018-07-30T04:00:27.663Z,5.90
2018-07-30T04:02:54.724Z,5.93
2018-07-30T04:05:22.612Z,6.40
2018-07-30T04:07:49.812Z,5.60
2018-07-30T04:10:17.716Z,5.70
2018-07-30T04:12:45.651Z,6.30
2018-07-30T04:15:13.532Z,6.40
2018-07-30T04:17:41.704Z,5.83
2018-07-30T04:20:08.883Z,6.23
2018-07-30T04:22:36.027Z,6.47
2018-07-30T04:25:03.507Z,6.10
2018-07-30T04:27:30.656Z,5.57
2018-07-30T04:29:57.843Z,5.23
2018-07-30T04:32:25.607Z,5.27
2018-07-30T04:34:53.674Z,4.97
2018-07-30T04:37:21.699Z,5.70
2018-07-30T04:39:50.583Z,5.03
2018-07-30T04:42:18.569Z,5.27
2018-07-30T04:44:47.551Z,5.77
2018-07-30T04:47:16.547Z,5.57
2018-07-30T04:49:44.660Z,4.33
2018-07-30T04:52:12.857Z,5.10
2018-07-30T04:54:40.028Z,5.13
2018-07-30T04:57:08.697Z,5.90
2018-07-30T04:59:36.812Z,4.60
2018-07-30T05:02:05.712Z,4.83
2018-07-30T05:04:32.819Z,5.60
2018-07-30T05:07:01.728Z,5.57
2018-07-30T05:09:28.794Z,5.40
2018-07-30T05:11:55.960Z,5.20
2018-07-30T05:14:23.628Z,4.93
2018-07-30T05:16:52.739Z,6.13
2018-07-30T05:19:19.928Z,5.97
2018-07-30T05:21:47.675Z,5.90
2018-07-30T05:24:15.558Z,6.67
2018-07-30T05:26:43.235Z,6.50
2018-07-30T05:29:10.404Z,5.80
2018-07-30T05:31:37.625Z,6.00
2018-07-30T05:34:05.767Z,6.50
2018-07-30T05:36:32.915Z,5.77
2018-07-30T05:39:06.496Z,6.27
2018-07-30T05:41:33.607Z,5.90
2018-07-30T05:44:00.755Z,5.77
2018-07-30T05:46:29.664Z,6.10
2018-07-30T05:48:56.721Z,6.00
2018-07-30T05:51:23.924Z,6.63
2018-07-30T05:53:54.099Z,6.00
2018-07-30T05:56:21.264Z,5.93
2018-07-30T05:58:49.407Z,5.97
2018-07-30T06:01:16.562Z,5.23
2018-07-30T06:03:43.718Z,7.07
2018-07-30T06:06:10.985Z,6.60
2018-07-30T06:08:39.056Z,6.10
2018-07-30T06:11:06.251Z,5.50
2018-07-30T06:13:33.359Z,5.60
2018-07-30T06:16:00.507Z,5.13
2018-07-30T06:18:27.639Z,5.50
2018-07-30T06:20:54.789Z,5.23
2018-07-30T06:23:22.012Z,6.07
2018-07-30T06:25:50.777Z,5.87
2018-07-30T06:28:17.876Z,5.70
2018-07-30T06:30:45.032Z,5.53
2018-07-30T06:33:12.703Z,5.43
2018-07-30T06:35:39.964Z,5.13
2018-07-30T06:38:07.115Z,5.07
2018-07-30T06:40:34.175Z,5.03
2018-07-30T06:43:01.370Z,4.77
2018-07-30T06:45:29.219Z,4.30
2018-07-30T06:47:56.479Z,5.40
2018-07-30T06:50:23.458Z,5.07
2018-07-30T06:52:50.611Z,4.90
2018-07-30T06:55:17.775Z,4.93
2018-07-30T06:57:44.935Z,5.40
2018-07-30T07:00:12.089Z,5.30
2018-07-30T07:02:39.871Z,4.53
2018-07-30T07:05:09.118Z,4.77
2018-07-30T07:07:36.231Z,5.23
2018-07-30T07:10:06.321Z,5.17
2018-07-30T07:12:33.364Z,5.60
2018-07-30T07:15:08.727Z,5.10
2018-07-30T07:17:49.679Z,4.80
2018-07-30T07:20:16.850Z,5.43
2018-07-30T07:22:44.009Z,5.10
2018-07-30T07:25:12.807Z,5.30
2018-07-30T07:27:39.964Z,5.50
2018-07-30T07:30:07.672Z,5.00
2018-07-30T07:32:35.850Z,4.90
2018-07-30T07:35:02.969Z,5.07
2018-07-30T07:37:30.044Z,5.60
2018-07-30T07:39:57.319Z,4.90
2018-07-30T07:42:26.392Z,4.67
2018-07-30T07:44:53.518Z,4.70
2018-07-30T07:47:21.260Z,4.97
2018-07-30T07:49:48.436Z,5.07
2018-07-30T07:52:16.517Z,4.90
2018-07-30T07:54:44.287Z,4.50
2018-07-30T07:57:11.411Z,4.80
2018-07-30T07:59:38.507Z,5.33
2018-07-30T08:02:07.236Z,4.90
2018-07-30T08:04:35.292Z,5.23
2018-07-30T08:07:03.217Z,5.13
2018-07-30T08:09:30.507Z,5.00
2018-07-30T08:11:57.523Z,4.93
2018-07-30T08:14:26.312Z,5.43
2018-07-30T08:16:54.275Z,5.30
2018-07-30T08:19:21.428Z,4.70
2018-07-30T08:21:49.364Z,5.20
2018-07-30T08:24:17.294Z,5.63
2018-07-30T08:26:44.452Z,4.87
2018-07-30T08:29:20.319Z,4.40
2018-07-30T08:31:51.887Z,4.77
2018-07-30T08:34:23.851Z,4.23
2018-07-30T08:36:51.026Z,4.53
2018-07-30T08:39:18.195Z,4.37
2018-07-30T08:41:45.356Z,4.40
2018-07-30T08:44:14.391Z,4.20
2018-07-30T08:46:42.355Z,4.10
2018-07-30T08:49:09.520Z,4.03
2018-07-30T08:51:41.494Z,4.20
2018-07-30T08:54:10.396Z,4.87
2018-07-30T08:56:39.296Z,4.33
2018-07-30T08:59:07.388Z,4.60
2018-07-30T09:01:34.519Z,4.83
2018-07-30T09:04:02.315Z,4.47
2018-07-30T09:06:29.458Z,4.30
2018-07-30T09:08:56.634Z,4.30
2018-07-30T09:11:23.808Z,3.70
2018-07-30T09:13:50.975Z,4.00
2018-07-30T09:16:18.297Z,4.40
2018-07-30T09:18:48.977Z,3.83
2018-07-30T09:21:16.864Z,3.67
2018-07-30T09:23:50.150Z,3.80
2018-07-30T09:26:17.319Z,4.30
2018-07-30T09:28:44.526Z,3.90
2018-07-30T09:31:11.682Z,3.83
2018-07-30T09:33:38.723Z,3.50
2018-07-30T09:36:06.144Z,3.80
2018-07-30T09:38:33.339Z,3.60
2018-07-30T09:41:00.516Z,3.87
2018-07-30T09:43:30.615Z,3.67
2018-07-30T09:45:57.791Z,4.20
2018-07-30T09:48:24.968Z,4.07
2018-07-30T09:50:52.194Z,3.50
2018-07-30T09:53:19.376Z,3.67
2018-07-30T09:55:46.588Z,3.50
2018-07-30T09:58:14.416Z,3.50
2018-07-30T10:00:47.371Z,3.70
2018-07-30T10:03:15.475Z,3.43
2018-07-30T10:05:42.711Z,3.10
2018-07-30T10:08:11.799Z,3.20
2018-07-30T10:10:39.875Z,3.00
2018-07-30T10:13:07.037Z,2.90
2018-07-30T10:15:34.909Z,3.20
2018-07-30T10:18:02.212Z,2.90
2018-07-30T10:20:29.323Z,3.70
2018-07-30T10:22:56.513Z,3.27
2018-07-30T10:25:23.667Z,3.87
2018-07-30T10:27:51.339Z,3.50
2018-07-30T10:30:18.506Z,3.87
2018-07-30T10:32:45.672Z,3.70
2018-07-30T10:35:12.832Z,4.33
2018-07-30T10:37:41.008Z,3.60
2018-07-30T10:40:08.204Z,4.07
2018-07-30T10:42:35.277Z,3.97
2018-07-30T10:45:02.380Z,4.03
2018-07-30T10:47:30.318Z,4.27
2018-07-30T10:49:57.334Z,4.00
2018-07-30T10:52:24.345Z,3.40
2018-07-30T10:54:51.620Z,3.80
2018-07-30T10:57:18.666Z,4.00
2018-07-30T10:59:45.732Z,3.70
2018-07-30T11:02:12.760Z,3.23
2018-07-30T11:04:42.024Z,3.17
2018-07-30T11:07:09.201Z,3.80
2018-07-30T11:09:36.417Z,3.43
2018-07-30T11:12:03.438Z,3.23
2018-07-30T11:14:30.684Z,3.30
2018-07-30T11:16:57.963Z,3.70
2018-07-30T11:19:25.024Z,3.40
2018-07-30T11:21:52.046Z,3.63
2018-07-30T11:24:19.140Z,3.33
2018-07-30T11:26:46.226Z,3.90
2018-07-30T11:29:13.224Z,3.27
2018-07-30T11:31:40.285Z,3.40
2018-07-30T11:34:07.327Z,3.70
2018-07-30T11:36:34.400Z,3.47
2018-07-30T11:39:01.410Z,3.40
2018-07-30T11:41:31.541Z,3.70
2018-07-30T11:43:58.593Z,3.57
2018-07-30T11:46:25.678Z,3.07
2018-07-30T11:48:52.688Z,3.10
2018-07-30T11:51:19.724Z,2.80
2018-07-30T11:53:47.483Z,2.70
2018-07-30T11:56:14.909Z,3.30
2018-07-30T11:58:41.914Z,3.13
2018-07-30T12:01:09.042Z,2.30
2018-07-30T12:03:36.165Z,2.60
2018-07-30T12:06:03.279Z,3.00
2018-07-30T12:08:30.361Z,2.13
2018-07-30T12:10:57.422Z,2.60
2018-07-30T12:13:24.546Z,2.80
2018-07-30T12:15:51.692Z,2.60
2018-07-30T12:18:18.844Z,2.37
2018-07-30T12:20:45.977Z,2.87
2018-07-30T12:23:14.765Z,2.60
2018-07-30T12:25:42.463Z,2.47
2018-07-30T12:28:09.493Z,3.10
2018-07-30T12:30:36.726Z,2.47
2018-07-30T12:33:03.702Z,2.97
2018-07-30T12:35:31.082Z,2.77
2018-07-30T12:37:58.182Z,2.87
2018-07-30T12:40:25.225Z,2.97
2018-07-30T12:42:52.393Z,2.77
2018-07-30T12:45:39.016Z,3.40
2018-07-30T12:48:06.245Z,2.93
2018-07-30T12:50:33.602Z,2.60
2018-07-30T12:53:00.700Z,2.97
2018-07-30T12:55:27.798Z,2.57
2018-07-30T12:57:54.796Z,2.90
2018-07-30T13:00:21.846Z,3.10
2018-07-30T13:02:48.959Z,2.80
2018-07-30T13:05:15.945Z,3.10
2018-07-30T13:07:42.965Z,3.50
2018-07-30T13:10:10.330Z,3.50
2018-07-30T13:12:37.394Z,3.30
2018-07-30T13:15:04.525Z,3.07
2018-07-30T13:17:32.633Z,2.67
2018-07-30T13:19:59.877Z,3.07
2018-07-30T13:22:27.000Z,3.27
2018-07-30T13:24:54.032Z,2.80
2018-07-30T13:27:21.147Z,2.70
2018-07-30T13:29:48.146Z,3.13
2018-07-30T13:32:15.431Z,3.20
2018-07-30T13:34:42.501Z,3.30
2018-07-30T13:37:09.504Z,3.33
2018-07-30T13:39:36.585Z,3.30
2018-07-30T13:42:03.720Z,3.40
2018-07-30T13:44:30.760Z,3.13
2018-07-30T13:46:57.887Z,3.50
2018-07-30T13:49:25.861Z,3.00
2018-07-30T13:51:53.051Z,3.10
2018-07-30T13:54:20.349Z,3.03
2018-07-30T13:56:47.531Z,3.00
2018-07-30T13:59:14.639Z,2.90
2018-07-30T14:01:42.706Z,3.33
2018-07-30T14:04:09.779Z,3.10
2018-07-30T14:06:36.993Z,3.20
2018-07-30T14:09:07.419Z,3.30
2018-07-30T14:11:34.588Z,2.83
2018-07-30T14:14:01.676Z,3.17
2018-07-30T14:16:28.898Z,3.17
2018-07-30T14:18:56.039Z,3.00
2018-07-30T14:21:23.236Z,3.30
2018-07-30T14:23:51.999Z,3.60
2018-07-30T14:26:19.064Z,3.87
2018-07-30T14:28:46.235Z,3.40
2018-07-30T14:31:13.375Z,2.87
2018-07-30T14:33:40.565Z,3.30
2018-07-30T14:36:07.656Z,3.20
2018-07-30T14:38:35.636Z,3.07
2018-07-30T14:41:02.816Z,3.33
2018-07-30T14:43:30.036Z,2.80
2018-07-30T14:45:57.168Z,3.20
2018-07-30T14:48:24.231Z,4.07
2018-07-30T14:50:51.383Z,3.40
2018-07-30T14:53:18.572Z,3.83
2018-07-30T14:55:46.541Z,3.50
2018-07-30T14:58:13.611Z,3.30
2018-07-30T15:00:42.622Z,3.83
2018-07-30T15:03:09.783Z,3.40
2018-07-30T15:05:36.859Z,3.53
2018-07-30T15:08:04.227Z,3.00
2018-07-30T15:10:31.291Z,3.40
2018-07-30T15:12:58.402Z,3.60
2018-07-30T15:15:25.632Z,3.53
2018-07-30T15:17:52.759Z,3.20
2018-07-30T15:20:19.815Z,3.40
2018-07-30T15:22:48.434Z,3.47
2018-07-30T15:25:15.411Z,3.57
2018-07-30T15:27:42.377Z,3.67
2018-07-30T15:30:09.264Z,3.17
2018-07-30T15:32:36.286Z,3.27
2018-07-30T15:35:05.019Z,3.53
2018-07-30T15:37:32.357Z,3.50
2018-07-30T15:39:59.263Z,3.60
2018-07-30T15:42:26.963Z,3.50
2018-07-30T15:44:53.921Z,3.47
2018-07-30T15:47:20.871Z,3.10
2018-07-30T15:49:47.788Z,3.53
2018-07-30T15:52:14.812Z,3.60
2018-07-30T15:54:41.757Z,4.10
2018-07-30T15:57:08.802Z,2.90
2018-07-30T15:59:35.801Z,3.30
2018-07-30T16:02:02.824Z,3.37
2018-07-30T16:04:34.231Z,3.70
2018-07-30T16:07:01.263Z,3.00
2018-07-30T16:09:28.207Z,3.07
2018-07-30T16:11:55.108Z,3.37
2018-07-30T16:14:22.112Z,3.30
2018-07-30T16:16:49.903Z,3.23
2018-07-30T16:19:17.468Z,3.27
2018-07-30T16:21:44.428Z,3.70
2018-07-30T16:24:11.384Z,3.40
2018-07-30T16:26:38.347Z,3.20
2018-07-30T16:29:05.333Z,3.20
2018-07-30T16:31:32.381Z,3.03
2018-07-30T16:33:59.891Z,2.80
2018-07-30T16:36:26.882Z,3.10
2018-07-30T16:38:53.839Z,3.17
2018-07-30T16:41:20.840Z,2.60
2018-07-30T16:43:47.816Z,3.00
2018-07-30T16:46:14.811Z,2.63
2018-07-30T16:48:41.790Z,2.90
2018-07-30T16:51:08.736Z,2.63
2018-07-30T16:53:35.689Z,2.60
2018-07-30T16:56:02.659Z,2.63
2018-07-30T16:58:29.595Z,2.50
2018-07-30T17:00:56.545Z,2.40
2018-07-30T17:03:23.504Z,2.30
2018-07-30T17:05:50.434Z,2.70
2018-07-30T17:08:17.435Z,2.57
2018-07-30T17:10:44.380Z,3.07
2018-07-30T17:13:11.332Z,2.57
2018-07-30T17:15:39.000Z,2.60
2018-07-30T17:18:06.508Z,5.27
2018-07-30T17:20:33.480Z,2.87
2018-07-30T17:23:00.411Z,2.90
2018-07-30T17:25:27.366Z,3.27
2018-07-30T17:27:54.307Z,2.67
2018-07-30T17:30:25.152Z,3.00
2018-07-30T17:32:53.953Z,3.13
2018-07-30T17:35:20.919Z,2.90
2018-07-30T17:37:47.856Z,3.10
2018-07-30T17:40:14.848Z,2.70
2018-07-30T17:42:41.798Z,3.03
2018-07-30T17:45:11.028Z,3.20
2018-07-30T17:47:37.995Z,3.10
2018-07-30T17:50:05.336Z,2.60
2018-07-30T17:52:32.296Z,3.30
2018-07-30T17:55:00.261Z,2.80
2018-07-30T17:57:27.505Z,3.03
2018-07-30T17:59:54.459Z,2.90
2018-07-30T18:02:21.446Z,2.83
2018-07-30T18:04:48.406Z,2.90
2018-07-30T18:07:15.443Z,2.90
2018-07-30T18:09:42.442Z,2.60
2018-07-30T18:12:09.432Z,2.40
2018-07-30T18:14:36.569Z,2.63
2018-07-30T18:17:04.583Z,2.70
2018-07-30T18:19:31.629Z,3.23
2018-07-30T18:21:58.622Z,3.10
2018-07-30T18:24:25.687Z,3.00
2018-07-30T18:26:52.731Z,3.00
2018-07-30T18:29:20.581Z,2.73
2018-07-30T18:31:47.872Z,2.80
2018-07-30T18:34:15.480Z,3.63
2018-07-30T18:36:42.439Z,3.30
2018-07-30T18:39:09.388Z,3.23
2018-07-30T18:41:36.351Z,3.30
2018-07-30T18:44:04.347Z,3.30
2018-07-30T18:46:33.337Z,3.20
2018-07-30T18:49:00.322Z,3.27
2018-07-30T18:51:28.091Z,3.47
2018-07-30T18:53:55.049Z,2.97
2018-07-30T18:56:22.000Z,3.10
2018-07-30T18:58:49.960Z,3.00
2018-07-30T19:01:21.647Z,3.13
2018-07-30T19:03:49.501Z,3.42
2018-07-30T19:06:20.072Z,3.50
2018-07-30T19:08:47.051Z,3.50
2018-07-30T19:11:16.014Z,3.50
2018-07-30T19:13:43.552Z,3.20
2018-07-30T19:16:10.562Z,3.63
2018-07-30T19:18:37.479Z,3.07
2018-07-30T19:21:05.395Z,2.90
2018-07-30T19:23:32.345Z,4.23
2018-07-30T19:25:59.319Z,3.90
2018-07-30T19:28:33.739Z,3.50
2018-07-30T19:31:01.537Z,3.60
2018-07-30T19:33:28.475Z,4.00
2018-07-30T19:35:55.399Z,4.37
2018-07-30T19:38:24.063Z,4.73
2018-07-30T19:40:51.086Z,4.90
2018-07-30T19:43:18.051Z,5.10
2018-07-30T19:45:46.044Z,4.37
2018-07-30T19:48:13.991Z,4.70
2018-07-30T19:50:44.544Z,4.20
2018-07-30T19:53:12.528Z,4.57
2018-07-30T19:55:39.607Z,4.90
2018-07-30T19:58:06.784Z,5.40
2018-07-30T20:00:34.795Z,5.77
2018-07-30T20:03:01.798Z,4.80
2018-07-30T20:05:28.736Z,5.80
2018-07-30T20:07:55.735Z,5.60
2018-07-30T20:10:22.656Z,5.60
2018-07-30T20:12:51.662Z,5.60
2018-07-30T20:15:20.559Z,4.30
2018-07-30T20:17:47.530Z,4.27
2018-07-30T20:20:22.461Z,4.37
2018-07-30T20:22:52.393Z,4.40
2018-07-30T20:25:22.336Z,4.50
2018-07-30T20:27:52.360Z,3.87
2018-07-30T20:30:20.128Z,3.90
2018-07-30T20:32:47.099Z,4.20
2018-07-30T20:35:14.047Z,4.50
2018-07-30T20:37:41.552Z,4.90
2018-07-30T20:40:10.154Z,4.77
2018-07-30T20:42:37.179Z,4.40
2018-07-30T20:45:04.193Z,4.50
2018-07-30T20:47:31.209Z,3.90
2018-07-30T20:49:59.076Z,4.40
2018-07-30T20:52:26.612Z,4.80
2018-07-30T20:54:54.779Z,4.23
2018-07-30T20:57:22.659Z,4.30
2018-07-30T20:59:51.628Z,4.80
2018-07-30T21:02:18.609Z,4.70
2018-07-30T21:04:46.658Z,3.93
2018-07-30T21:07:13.620Z,5.10
2018-07-30T21:09:40.559Z,5.40
2018-07-30T21:12:07.520Z,4.87
2018-07-30T21:14:34.534Z,4.60
2018-07-30T21:17:05.542Z,4.90
2018-07-30T21:19:33.139Z,5.10
2018-07-30T21:22:00.636Z,4.67
2018-07-30T21:24:30.327Z,4.80
2018-07-30T21:27:03.513Z,4.10
2018-07-30T21:29:30.494Z,5.03
2018-07-30T21:31:59.171Z,4.80
2018-07-30T21:34:29.922Z,4.90
2018-07-30T21:36:57.675Z,4.80
2018-07-30T21:39:27.757Z,5.33
2018-07-30T21:41:54.713Z,5.07
2018-07-30T21:44:21.632Z,4.70
2018-07-30T21:46:48.589Z,4.73
2018-07-30T21:49:18.517Z,4.70
2018-07-30T21:51:50.184Z,5.60
2018-07-30T21:54:17.143Z,5.00
2018-07-30T21:56:45.639Z,4.97
2018-07-30T21:59:15.562Z,4.73
2018-07-30T22:01:42.503Z,4.93
2018-07-30T22:04:12.446Z,5.17
2018-07-30T22:06:39.408Z,5.27
2018-07-30T22:11:38.196Z,5.17
2018-07-30T22:14:05.380Z,5.43
2018-07-30T22:16:32.277Z,5.37
2018-07-30T22:18:59.200Z,5.17
2018-07-30T22:21:26.092Z,4.80
2018-07-30T22:23:52.991Z,5.33
2018-07-30T22:26:19.900Z,5.03
2018-07-30T22:28:46.791Z,5.27
2018-07-30T22:31:13.702Z,5.67
2018-07-30T22:33:40.591Z,5.03
2018-07-30T22:36:07.538Z,5.97
2018-07-30T22:38:34.437Z,5.40
2018-07-30T22:41:01.345Z,5.33
2018-07-30T22:43:28.260Z,4.93
2018-07-30T22:45:55.159Z,5.73
2018-07-30T22:48:22.519Z,6.00
2018-07-30T22:50:49.428Z,5.37
2018-07-30T22:53:16.312Z,6.00
2018-07-30T22:55:43.208Z,4.97
2018-07-30T22:58:10.111Z,6.03
2018-07-30T23:00:37.024Z,6.27
2018-07-30T23:03:03.910Z,5.30
2018-07-30T23:05:30.856Z,5.27
2018-07-30T23:07:58.961Z,4.90
2018-07-30T23:10:25.852Z,5.40
2018-07-30T23:12:52.778Z,5.90
2018-07-30T23:15:19.676Z,6.20
2018-07-30T23:17:46.617Z,6.55
2018-07-30T23:20:13.856Z,5.50
2018-07-30T23:22:40.812Z,6.10
2018-07-30T23:25:07.869Z,5.20
2018-07-30T23:27:35.006Z,4.90
2018-07-30T23:30:01.924Z,5.50
2018-07-30T23:32:28.824Z,5.30
2018-07-30T23:34:55.746Z,6.00
2018-07-30T23:37:22.863Z,5.67
2018-07-30T23:39:49.621Z,5.90
2018-07-30T23:42:16.602Z,5.70
2018-07-30T23:44:43.507Z,5.50
2018-07-30T23:47:10.435Z,6.10
2018-07-30T23:49:37.500Z,6.73
2018-07-30T23:52:04.428Z,6.00
2018-07-30T23:54:31.352Z,6.00
2018-07-30T23:56:58.284Z,5.90
2018-07-30T23:59:25.198Z,6.13
